Flight Track Log - Related Links

Times and Time Zones

All times are in EDT time to prevent confusion due to time zone crossing. See the N1560T flight status page for this flight to view local times or setup timezone preferences in your user account.


Time Position Orientation Groundspeed Altitude Reporting Facility
EDT Latitude Longitude Course Direction KTS MPH feet Rate Location/Type
Fri 02:27:12 PM 41.9500 -88.2667 29° Northeast 171 197 2,100  Level Chicago TRACON
Fri 02:28:12 PM 41.9833 -88.3167 312° West 164 189 2,700 410 Climbing Chicago TRACON
Fri 02:29:09 PM 42.0089 -88.3561 311° West 166 191 2,900 150 Climbing Chicago Center
Fri 02:30:12 PM 42.0478 -88.3903 327° Northwest 171 197 3,000 48 Climbing Chicago Center
Fri 02:31:14 PM 42.1033 -88.3939 357° North 169 194 3,000  Level Chicago Center
Fri 02:32:00 PM 42.1829 -87.9837 29° Northeast  Level FlightAware Approximate
Fri 02:32:16 PM 42.1456 -88.4014 352° North 161 185 3,000  Level Chicago Center
Fri 02:33:18 PM 42.1894 -88.4036 358° North 158 182 3,500 484 Climbing Chicago Center
Fri 02:34:20 PM 42.2333 -88.3961 North 157 181 4,000 435 Climbing Chicago Center
Fri 02:35:22 PM 42.2756 -88.3803 16° North 159 183 4,400 629 Climbing Chicago Center
Fri 02:36:24 PM 42.3219 -88.3503 26° Northeast 155 178 5,300 774 Climbing Chicago Center
Fri 02:37:26 PM 42.3542 -88.3286 26° Northeast 150 173 6,000 339 Climbing Chicago Center
Fri 02:38:28 PM 42.4078 -88.3375 353° North 171 197 6,000 339 Level Chicago Center
Fri 02:39:30 PM 42.4547 -88.3364 North 170 196 6,700 919 Climbing Chicago Center
Fri 02:40:32 PM 42.4983 -88.3378 359° North 160 184 7,900 1,200 Climbing Chicago Center
Fri 02:41:35 PM 42.5442 -88.3397 358° North 162 186 9,200 1,248 Climbing Chicago Center
Fri 02:42:37 PM 42.5900 -88.3436 356° North 165 190 10,500 1,403 Climbing Chicago Center
Fri 02:43:39 PM 42.6436 -88.3475 357° North 166 191 12,100 1,355 Climbing Chicago Center
Fri 02:44:41 PM 42.6903 -88.3606 348° North 169 194 13,300 968 Climbing Chicago Center
Fri 02:45:43 PM 42.7383 -88.3736 349° North 173 199 14,100 387 Climbing Chicago Center
Fri 02:46:45 PM 42.7944 -88.3867 350° North 202 232 14,100  Level Chicago Center
Fri 02:47:47 PM 42.8572 -88.3983 352° North 224 258 14,100  Level Chicago Center
Fri 02:48:49 PM 42.9292 -88.4136 351° North 223 257 14,100  Level Chicago Center
Fri 02:49:51 PM 42.9892 -88.4292 349° North 220 253 14,100  Level Chicago Center
Fri 02:50:53 PM 43.0511 -88.4444 350° North 226 260 14,100  Level Chicago Center
Fri 02:51:55 PM 43.1117 -88.4569 351° North 221 254 14,100  Level Chicago Center
Fri 02:52:57 PM 43.1736 -88.4717 350° North 223 257 14,100  Level Chicago Center
Fri 02:54:00 PM 43.2342 -88.4856 351° North 221 254 14,100  Level Chicago Center
Fri 02:55:02 PM 43.3061 -88.5031 350° North 223 257 14,100  Level Chicago Center
Fri 02:56:04 PM 43.3672 -88.5181 350° North 222 255 14,100  Level Chicago Center
Fri 02:57:06 PM 43.4294 -88.5356 348° North 222 255 14,100  Level Chicago Center
Fri 02:58:08 PM 43.4961 -88.5494 351° North 231 266 14,100  Level Chicago Center
Fri 02:59:10 PM 43.5578 -88.5633 351° North 225 259 14,100  Level Chicago Center
Fri 03:00:12 PM 43.6192 -88.5778 350° North 222 255 14,100  Level Chicago Center
Fri 03:01:14 PM 43.6800 -88.5925 350° North 222 255 14,100 -48 Level Chicago Center
Fri 03:02:16 PM 43.7508 -88.6100 350° North 222 255 14,000 -48 Descending Chicago Center
Fri 03:03:18 PM 43.8108 -88.6231 351° North 220 253 14,000  Level Chicago Center
Fri 03:04:20 PM 43.8719 -88.6383 350° North 222 255 14,000  Level Chicago Center
Fri 03:05:22 PM 43.9328 -88.6536 350° North 222 255 14,000  Level Chicago Center
Fri 03:06:25 PM 43.9950 -88.6672 351° North 224 258 14,000  Level Chicago Center
Fri 03:07:27 PM 44.0669 -88.6842 350° North 224 258 14,000  Level Chicago Center
Fri 03:08:41 PM 44.1397 -88.7039 349° North 224 258 14,000  Level Minneapolis Center
Fri 03:09:43 PM 44.1981 -88.7178 350° North 224 258 14,000  Level Minneapolis Center
Fri 03:10:45 PM 44.2597 -88.7336 350° North 225 259 14,000  Level Minneapolis Center
Fri 03:11:47 PM 44.3211 -88.7486 350° North 224 258 14,000  Level Minneapolis Center
Fri 03:12:49 PM 44.3831 -88.7633 350° North 225 259 14,000  Level Minneapolis Center
Fri 03:13:51 PM 44.4569 -88.7822 350° North 225 259 14,000  Level Minneapolis Center
Fri 03:14:53 PM 44.5186 -88.7964 351° North 225 259 14,000  Level Minneapolis Center
Fri 03:15:55 PM 44.5800 -88.8108 350° North 225 259 14,000  Level Minneapolis Center
Fri 03:16:57 PM 44.6417 -88.8267 350° North 226 260 14,000  Level Minneapolis Center
Fri 03:17:59 PM 44.7031 -88.8431 349° North 224 258 14,000  Level Minneapolis Center
Fri 03:19:01 PM 44.7650 -88.8578 350° North 226 260 14,000  Level Minneapolis Center
Fri 03:20:04 PM 44.8389 -88.8744 351° North 223 257 14,000  Level Minneapolis Center
Fri 03:21:06 PM 44.9011 -88.8906 350° North 228 262 14,000  Level Minneapolis Center
Fri 03:22:08 PM 44.9622 -88.9072 349° North 224 258 14,000  Level Minneapolis Center
Fri 03:23:10 PM 45.0244 -88.9217 351° North 227 261 14,000  Level Minneapolis Center
Fri 03:24:12 PM 45.0861 -88.9381 349° North 226 260 14,000  Level Minneapolis Center
Fri 03:25:14 PM 45.1486 -88.9528 351° North 228 262 14,000  Level Minneapolis Center
Fri 03:26:16 PM 45.2225 -88.9708 350° North 226 260 14,000  Level Minneapolis Center
Fri 03:27:18 PM 45.2850 -88.9875 349° North 229 264 14,000  Level Minneapolis Center
Fri 03:28:20 PM 45.3486 -89.0039 350° North 234 269 14,000 -194 Level Minneapolis Center
Fri 03:29:22 PM 45.4111 -89.0192 350° North 230 265 13,600 -745 Descending Minneapolis Center
Fri 03:30:37 PM 45.4928 -89.0406 350° North 248 285 12,300 -1,139 Descending Minneapolis Center
Fri 03:31:39 PM 45.5747 -89.0622 350° North 248 285 11,000 -1,161 Descending Minneapolis Center
Fri 03:32:41 PM 45.6428 -89.0786 350° North 249 287 9,900 -1,065 Descending Minneapolis Center
Fri 03:33:43 PM 45.7075 -89.0961 349° North 237 273 8,800 -1,065 Descending Minneapolis Center
Fri 03:34:45 PM 45.7683 -89.1139 348° North 226 260 7,700 -1,016 Descending Minneapolis Center
Fri 03:35:47 PM 45.8267 -89.1331 347° North 219 252 6,700 -968 Descending Minneapolis Center
Fri 03:36:49 PM 45.8839 -89.1494 349° North 212 244 5,700 -968 Descending Minneapolis Center
Fri 03:38:00 PM 45.9613 -89.1628 353° North  Level FlightAware Approximate

Login

Don't have an account? Register now (free) for customized features, flight alerts, and more!